Anita, Pennsylvania
Current Conditions -  °F | °C
As of 1:53 AM on Wednesday 26 Nov 2014 (Local Time) from KDUJ Reporting Station
Clear Clear  
Wind Chill: 30°   Ceiling: Unl
Heat Index: 30°   Visibility: 10mi
Dew Point: 23°   Wind: 0mph
Humidity: 75%   Direction: NA
Pressure: 30.11"   Gusts: NA
Location:  41°N, 78.96°W
Report Text: KDUJ 260653Z AUTO 00000KT 10SM CLR M01/M05 A3011 RMK AO2 PRESFR SLP211 T10111050
Loading
Personal Weather Stations






























Interactive Weather Map New forecast layout! Learn more

10-Day Weather Forecast

Advertisements
Track Severe Weather on mobile